createdAt,value
2023-05-05T00:06:40.048Z,0.93
2023-05-05T00:16:46.859Z,1.07
2023-05-05T00:26:51.097Z,1.27
2023-05-05T00:36:56.253Z,2.10
2023-05-05T00:47:00.009Z,1.50
2023-05-05T00:57:05.364Z,0.83
2023-05-05T01:07:22.212Z,1.40
2023-05-05T01:17:36.335Z,1.10
2023-05-05T01:28:08.521Z,1.10
2023-05-05T01:38:18.602Z,1.13
2023-05-05T01:48:23.936Z,1.10
2023-05-05T01:58:31.334Z,1.27
2023-05-05T02:08:38.041Z,1.40
2023-05-05T02:18:44.315Z,1.50
2023-05-05T02:28:53.648Z,1.60
2023-05-05T02:39:04.718Z,1.10
2023-05-05T02:49:08.522Z,1.10
2023-05-05T02:59:20.998Z,1.20
2023-05-05T03:09:31.243Z,1.47
2023-05-05T03:19:38.288Z,1.10
2023-05-05T03:29:41.920Z,1.43
2023-05-05T03:39:46.947Z,1.50
2023-05-05T03:49:50.517Z,1.20
2023-05-05T03:59:55.598Z,1.50
2023-05-05T04:09:59.220Z,1.23
2023-05-05T04:20:04.765Z,1.53
2023-05-05T04:30:10.719Z,1.73
2023-05-05T04:40:16.151Z,1.60
2023-05-05T04:50:20.366Z,2.17
2023-05-05T05:00:25.580Z,1.83
2023-05-05T05:10:29.461Z,1.50
2023-05-05T05:20:34.595Z,2.20
2023-05-05T05:30:38.590Z,2.17
2023-05-05T05:40:43.763Z,2.17
2023-05-05T05:50:47.596Z,2.17
2023-05-05T06:00:52.708Z,2.37
2023-05-05T06:10:56.411Z,2.20
2023-05-05T06:21:02.047Z,1.45
2023-05-05T06:31:08.297Z,1.90
2023-05-05T06:41:13.470Z,2.30
2023-05-05T06:51:17.209Z,2.70
2023-05-05T07:01:22.201Z,2.13
2023-05-05T07:11:25.885Z,2.28
2023-05-05T07:21:30.904Z,1.67
2023-05-05T07:31:34.645Z,2.03
2023-05-05T07:41:39.936Z,2.05
2023-05-05T07:51:44.880Z,1.83
2023-05-05T08:01:49.952Z,1.88
2023-05-05T08:11:53.540Z,1.98
2023-05-05T08:22:01.127Z,2.50
2023-05-05T08:32:05.232Z,1.52
2023-05-05T08:42:10.373Z,1.73
2023-05-05T08:52:17.234Z,1.45
2023-05-05T09:02:23.950Z,1.35
2023-05-05T09:12:31.762Z,1.33
2023-05-05T09:22:38.787Z,2.00
2023-05-05T09:32:47.690Z,1.33
2023-05-05T09:43:02.799Z,1.70
2023-05-05T09:53:07.276Z,1.67
2023-05-05T10:03:12.413Z,1.92
2023-05-05T10:13:21.559Z,1.48
2023-05-05T10:23:37.174Z,1.25
2023-05-05T10:33:50.034Z,1.10
2023-05-05T10:43:57.489Z,0.50
2023-05-05T10:54:10.281Z,1.10
2023-05-05T11:04:23.584Z,0.95
2023-05-05T11:14:27.230Z,0.60
2023-05-05T11:24:36.447Z,0.60
2023-05-05T11:34:50.766Z,0.65
2023-05-05T11:44:56.212Z,0.40
2023-05-05T11:55:03.645Z,0.77
2023-05-05T12:05:09.355Z,0.60
2023-05-05T12:15:13.046Z,0.20
2023-05-05T12:25:18.529Z,0.55
2023-05-05T12:35:22.475Z,0.30
2023-05-05T12:45:27.748Z,0.50
2023-05-05T12:55:39.913Z,0.30
2023-05-05T13:05:45.058Z,0.28
2023-05-05T13:15:48.712Z,0.17
2023-05-05T13:25:53.928Z,0.30
2023-05-05T13:35:57.603Z,0.50
2023-05-05T13:46:18.619Z,1.75
2023-05-05T13:56:26.054Z,0.50
2023-05-05T14:06:31.235Z,0.30
2023-05-05T14:16:35.104Z,0.50
2023-05-05T14:26:40.177Z,0.30
2023-05-05T14:36:43.856Z,0.10
2023-05-05T14:46:50.484Z,0.13
2023-05-05T14:56:54.786Z,0.73
2023-05-05T15:06:59.797Z,0.20
2023-05-05T15:17:03.756Z,0.30
2023-05-05T15:27:08.815Z,0.30
2023-05-05T15:37:12.528Z,0.35
2023-05-05T15:47:17.586Z,0.30
2023-05-05T15:57:21.397Z,0.40
2023-05-05T16:07:26.915Z,0.20
2023-05-05T16:17:31.020Z,0.25
2023-05-05T16:27:36.023Z,0.40
2023-05-05T16:37:39.758Z,0.30
2023-05-05T16:47:45.501Z,0.25
2023-05-05T16:57:49.325Z,0.50
2023-05-05T17:07:54.654Z,3.70
2023-05-05T17:17:58.378Z,1.30
2023-05-05T17:28:05.834Z,1.15
2023-05-05T17:38:09.539Z,0.85
2023-05-05T17:48:14.570Z,1.05
2023-05-05T17:58:18.349Z,0.52
2023-05-05T18:08:23.393Z,0.50
2023-05-05T18:18:27.031Z,0.57
2023-05-05T18:28:32.175Z,0.50
2023-05-05T18:38:37.166Z,0.60
2023-05-05T18:48:42.115Z,0.70
2023-05-05T18:58:45.753Z,0.93
2023-05-05T19:08:51.113Z,0.70
2023-05-05T19:18:58.632Z,0.80
2023-05-05T19:29:03.964Z,0.70
2023-05-05T19:39:08.120Z,0.60
2023-05-05T19:49:13.193Z,0.57
2023-05-05T19:59:16.813Z,0.98
2023-05-05T20:09:21.736Z,0.90
2023-05-05T20:19:25.811Z,0.70
2023-05-05T20:29:30.820Z,1.50
2023-05-05T20:39:34.480Z,1.17
2023-05-05T20:49:39.464Z,1.00
2023-05-05T20:59:43.126Z,0.80
2023-05-05T21:09:51.400Z,1.08
2023-05-05T21:19:56.156Z,0.60
2023-05-05T21:30:01.628Z,0.25
2023-05-05T21:40:07.201Z,0.40
2023-05-05T21:50:13.161Z,0.40
2023-05-05T22:00:17.667Z,1.77
2023-05-05T22:10:22.918Z,0.45
2023-05-05T22:20:27.178Z,0.60
2023-05-05T22:30:32.234Z,1.15
2023-05-05T22:40:36.620Z,0.50
2023-05-05T22:50:41.845Z,0.55
2023-05-05T23:00:45.662Z,0.52
2023-05-05T23:10:51.822Z,0.57
2023-05-05T23:20:55.829Z,0.82
2023-05-05T23:31:01.011Z,1.02
2023-05-05T23:41:05.064Z,0.60
2023-05-05T23:51:10.210Z,0.40
